createdAt,value
2023-04-26T00:00:01.148Z,8.60
2023-04-26T00:02:28.013Z,10.50
2023-04-26T00:04:56.654Z,7.60
2023-04-26T00:07:28.734Z,9.40
2023-04-26T00:09:55.509Z,8.20
2023-04-26T00:12:22.410Z,10.90
2023-04-26T00:14:49.354Z,8.50
2023-04-26T00:17:16.218Z,10.10
2023-04-26T00:19:43.016Z,9.40
2023-04-26T00:22:09.921Z,9.40
2023-04-26T00:24:36.960Z,9.90
2023-04-26T00:27:08.999Z,10.70
2023-04-26T00:29:36.166Z,10.30
2023-04-26T00:32:03.377Z,9.20
2023-04-26T00:34:37.211Z,8.80
2023-04-26T00:37:04.515Z,11.00
2023-04-26T00:39:31.452Z,9.10
2023-04-26T00:41:58.370Z,7.80
2023-04-26T00:44:25.154Z,8.40
2023-04-26T00:46:53.911Z,11.30
2023-04-26T00:49:22.498Z,10.40
2023-04-26T00:51:49.614Z,9.80
2023-04-26T00:54:16.346Z,9.90
2023-04-26T00:56:43.427Z,8.90
2023-04-26T00:59:10.240Z,9.10
2023-04-26T01:01:37.990Z,8.90
2023-04-26T01:04:05.569Z,7.70
2023-04-26T01:06:38.490Z,9.30
2023-04-26T01:09:08.503Z,7.90
2023-04-26T01:11:38.792Z,9.10
2023-04-26T01:14:08.548Z,9.60
2023-04-26T01:16:35.456Z,7.20
2023-04-26T01:19:13.037Z,9.20
2023-04-26T01:21:40.238Z,8.30
2023-04-26T01:24:08.298Z,10.10
2023-04-26T01:26:44.262Z,11.30
2023-04-26T01:29:15.844Z,7.50
2023-04-26T01:31:42.755Z,8.80
2023-04-26T01:34:09.654Z,10.80
2023-04-26T01:36:36.478Z,9.30
2023-04-26T01:39:04.103Z,14.90
2023-04-26T01:41:31.142Z,8.30
2023-04-26T01:44:01.456Z,8.00
2023-04-26T01:46:28.411Z,11.30
2023-04-26T01:48:55.342Z,9.10
2023-04-26T01:51:23.107Z,10.50
2023-04-26T01:53:49.908Z,11.80
2023-04-26T02:04:32.089Z,8.70
2023-04-26T02:06:59.791Z,13.10
2023-04-26T02:09:26.605Z,8.90
2023-04-26T02:11:53.399Z,7.90
2023-04-26T02:14:20.402Z,7.20
2023-04-26T02:16:49.329Z,9.50
2023-04-26T02:19:16.297Z,10.50
2023-04-26T02:21:57.299Z,9.20
2023-04-26T02:24:24.881Z,9.50
2023-04-26T02:26:52.484Z,8.10
2023-04-26T02:29:21.234Z,8.10
2023-04-26T02:31:53.861Z,10.10
2023-04-26T02:34:21.014Z,10.50
2023-04-26T02:36:48.873Z,9.50
2023-04-26T02:39:17.023Z,10.80
2023-04-26T02:41:43.785Z,7.90
2023-04-26T02:44:11.431Z,10.30
2023-04-26T02:46:38.418Z,6.70
2023-04-26T02:49:06.140Z,8.20
2023-04-26T02:51:33.705Z,11.50
2023-04-26T02:54:00.625Z,7.20
2023-04-26T02:56:27.419Z,8.90
2023-04-26T02:58:54.668Z,9.00
2023-04-26T03:01:22.129Z,9.20
2023-04-26T03:03:49.451Z,7.50
2023-04-26T03:06:16.899Z,9.70
2023-04-26T03:08:43.940Z,11.70
2023-04-26T03:11:11.625Z,11.60
2023-04-26T03:13:38.561Z,10.70
2023-04-26T03:16:06.356Z,8.90
2023-04-26T03:18:33.221Z,8.30
2023-04-26T03:21:00.526Z,12.10
2023-04-26T03:23:27.479Z,9.70
2023-04-26T03:25:54.587Z,13.90
2023-04-26T03:28:21.865Z,12.20
2023-04-26T03:30:50.068Z,12.60
2023-04-26T03:33:17.653Z,15.70
2023-04-26T03:35:44.446Z,12.80
2023-04-26T03:38:11.258Z,12.00
2023-04-26T03:40:38.129Z,11.80
2023-04-26T03:43:05.044Z,11.60
2023-04-26T03:45:31.817Z,12.40
2023-04-26T03:47:58.602Z,13.20
2023-04-26T03:50:25.467Z,13.40
2023-04-26T03:52:52.449Z,12.30
2023-04-26T03:55:19.397Z,15.70
2023-04-26T03:57:46.208Z,14.30
2023-04-26T04:00:14.346Z,14.90
2023-04-26T04:02:44.231Z,13.50
2023-04-26T04:05:13.246Z,12.50
2023-04-26T04:07:40.154Z,13.40
2023-04-26T04:10:08.146Z,10.90
2023-04-26T04:12:35.774Z,11.20
2023-04-26T04:15:04.268Z,12.30
2023-04-26T04:17:32.118Z,13.70
2023-04-26T04:19:59.122Z,15.00
2023-04-26T04:22:26.645Z,12.00
2023-04-26T04:24:54.518Z,13.80
2023-04-26T04:27:21.973Z,13.10
2023-04-26T04:29:49.224Z,15.30
2023-04-26T04:32:17.267Z,14.90
2023-04-26T04:34:44.962Z,14.30
2023-04-26T04:37:12.003Z,14.80
2023-04-26T04:39:38.740Z,14.00
2023-04-26T04:42:05.538Z,11.30
2023-04-26T04:44:32.750Z,12.90
2023-04-26T04:47:00.730Z,11.40
2023-04-26T04:49:28.089Z,10.60
2023-04-26T04:51:57.564Z,10.20
2023-04-26T04:54:24.922Z,10.10
2023-04-26T04:56:52.179Z,16.80
2023-04-26T04:59:19.225Z,13.90
2023-04-26T05:01:47.874Z,12.90
2023-04-26T05:04:15.529Z,9.90
2023-04-26T05:06:43.370Z,9.90
2023-04-26T05:09:11.525Z,9.30
2023-04-26T05:11:38.567Z,11.10
2023-04-26T05:14:07.254Z,10.20
2023-04-26T05:16:34.154Z,11.60
2023-04-26T05:19:02.648Z,10.90
2023-04-26T05:21:29.632Z,10.90
2023-04-26T05:23:56.877Z,13.40
2023-04-26T05:26:23.723Z,15.40
2023-04-26T05:28:55.028Z,14.60
2023-04-26T05:31:30.577Z,12.40
2023-04-26T05:34:17.595Z,12.30
2023-04-26T05:36:49.454Z,14.20
2023-04-26T05:39:16.374Z,11.80
2023-04-26T05:41:43.286Z,12.90
2023-04-26T05:44:10.438Z,12.80
2023-04-26T05:46:38.021Z,11.90
2023-04-26T05:49:04.968Z,12.80
2023-04-26T05:51:31.761Z,15.40
2023-04-26T05:53:58.690Z,11.40
2023-04-26T05:56:26.401Z,12.00
2023-04-26T05:58:53.634Z,10.90
2023-04-26T06:01:20.496Z,11.40
2023-04-26T06:03:47.588Z,15.00
2023-04-26T06:06:16.067Z,13.60
2023-04-26T06:08:43.706Z,12.10
2023-04-26T06:11:11.354Z,12.20
2023-04-26T06:13:39.116Z,8.90
2023-04-26T06:16:07.027Z,10.10
2023-04-26T06:18:33.985Z,9.70
2023-04-26T06:21:00.934Z,10.90
2023-04-26T06:23:27.791Z,10.40
2023-04-26T06:25:54.577Z,9.50
2023-04-26T06:28:21.727Z,10.20
2023-04-26T06:30:48.685Z,10.40
2023-04-26T06:33:15.535Z,9.30
2023-04-26T06:35:42.394Z,10.90
2023-04-26T06:38:09.815Z,18.20
2023-04-26T06:40:39.538Z,8.40
2023-04-26T06:43:06.465Z,10.30
2023-04-26T06:45:59.549Z,9.00
2023-04-26T06:48:27.534Z,10.10
2023-04-26T06:50:54.543Z,7.80
2023-04-26T06:53:23.035Z,10.60
2023-04-26T06:55:50.281Z,10.00
2023-04-26T06:58:17.115Z,7.90
2023-04-26T07:00:43.889Z,8.20
2023-04-26T07:03:11.134Z,9.70
2023-04-26T07:05:39.678Z,8.40
2023-04-26T07:08:06.929Z,11.40
2023-04-26T07:10:34.394Z,9.50
2023-04-26T07:13:01.479Z,9.50
2023-04-26T07:15:28.444Z,9.20
2023-04-26T07:17:55.218Z,8.00
2023-04-26T07:20:22.908Z,13.40
2023-04-26T07:22:50.919Z,8.20
2023-04-26T07:25:18.010Z,7.00
2023-04-26T07:27:44.823Z,10.50
2023-04-26T07:30:11.968Z,9.50
2023-04-26T07:32:38.848Z,8.30
2023-04-26T07:35:07.733Z,11.10
2023-04-26T07:37:34.436Z,9.60
2023-04-26T07:40:01.675Z,11.80
2023-04-26T07:42:28.477Z,9.00
2023-04-26T07:44:55.375Z,8.50
2023-04-26T07:47:22.139Z,8.50
2023-04-26T07:49:53.295Z,7.20
2023-04-26T07:52:20.693Z,6.50
2023-04-26T07:54:47.862Z,13.40
2023-04-26T07:57:14.597Z,7.20
2023-04-26T07:59:41.422Z,9.70
2023-04-26T08:02:08.259Z,6.90
2023-04-26T08:04:35.385Z,7.20
2023-04-26T08:07:02.810Z,8.90
2023-04-26T08:09:30.823Z,10.20
2023-04-26T08:11:57.948Z,9.30
2023-04-26T08:14:24.891Z,12.30
2023-04-26T08:16:52.092Z,8.70
2023-04-26T08:19:19.016Z,9.00
2023-04-26T08:21:47.430Z,8.50
2023-04-26T08:24:14.217Z,10.70
2023-04-26T08:26:41.278Z,8.00
2023-04-26T08:29:08.077Z,13.60
2023-04-26T08:31:35.465Z,7.90
2023-04-26T08:34:02.375Z,9.50
2023-04-26T08:36:29.134Z,9.00
2023-04-26T08:38:57.772Z,9.30
2023-04-26T08:41:24.932Z,11.00
2023-04-26T08:43:52.944Z,11.70
2023-04-26T08:46:20.723Z,13.80
2023-04-26T08:48:51.983Z,10.20
2023-04-26T08:51:21.733Z,7.90
2023-04-26T08:53:48.948Z,7.50
2023-04-26T08:56:15.882Z,9.50
2023-04-26T08:58:42.831Z,7.70
2023-04-26T09:01:09.632Z,8.90
2023-04-26T09:03:37.134Z,8.40
2023-04-26T09:06:07.454Z,8.70
2023-04-26T09:08:35.385Z,7.40
2023-04-26T09:11:03.257Z,11.30
2023-04-26T09:13:30.520Z,8.20
2023-04-26T09:15:58.501Z,8.60
2023-04-26T09:18:25.516Z,10.40
2023-04-26T09:21:02.766Z,8.50
2023-04-26T09:23:29.582Z,8.20
2023-04-26T09:25:56.296Z,6.80
2023-04-26T09:28:23.655Z,7.40
2023-04-26T09:30:50.596Z,7.00
2023-04-26T09:33:17.802Z,7.90
2023-04-26T09:35:44.961Z,10.50
2023-04-26T09:38:16.244Z,6.80
2023-04-26T09:40:46.707Z,9.00
2023-04-26T09:43:19.258Z,11.80
2023-04-26T09:45:58.459Z,8.80
2023-04-26T09:48:26.906Z,9.80
2023-04-26T09:50:55.391Z,8.90
2023-04-26T09:53:30.010Z,16.90
2023-04-26T09:55:57.637Z,12.80
2023-04-26T09:58:24.543Z,12.50
2023-04-26T10:00:51.736Z,9.60
2023-04-26T10:03:23.406Z,10.30
2023-04-26T10:05:50.506Z,11.00
2023-04-26T10:08:17.354Z,8.20
2023-04-26T10:10:45.848Z,9.40
2023-04-26T10:13:13.111Z,8.30
2023-04-26T10:15:40.339Z,9.50
2023-04-26T10:18:07.979Z,11.40
2023-04-26T10:21:11.457Z,9.80
2023-04-26T10:23:38.934Z,11.80
2023-04-26T10:26:05.728Z,9.30
2023-04-26T10:29:02.653Z,8.90
2023-04-26T10:32:02.146Z,7.60
2023-04-26T10:34:31.329Z,10.40
2023-04-26T10:37:11.589Z,8.30
2023-04-26T10:39:39.508Z,10.00
2023-04-26T10:42:26.749Z,8.50
2023-04-26T10:44:58.984Z,9.50
2023-04-26T10:47:34.050Z,9.40
2023-04-26T10:50:08.933Z,8.40
2023-04-26T10:52:37.129Z,8.90
2023-04-26T10:55:06.401Z,9.30
2023-04-26T10:57:52.991Z,8.40
2023-04-26T11:00:29.181Z,9.10
2023-04-26T11:03:05.299Z,10.10
2023-04-26T11:05:39.656Z,7.60
2023-04-26T11:08:15.932Z,8.60
2023-04-26T11:10:43.307Z,11.90
2023-04-26T11:13:10.352Z,9.90
2023-04-26T11:15:37.355Z,7.90
2023-04-26T11:18:05.113Z,7.80
2023-04-26T11:20:32.602Z,8.30
2023-04-26T11:23:00.013Z,6.80
2023-04-26T11:25:30.272Z,8.60
2023-04-26T11:27:59.002Z,8.00
2023-04-26T11:30:25.956Z,8.20
2023-04-26T11:32:52.760Z,8.20
2023-04-26T11:35:23.169Z,9.50
2023-04-26T11:37:51.918Z,8.40
2023-04-26T11:40:18.981Z,7.40
2023-04-26T11:42:46.062Z,9.90
2023-04-26T11:45:15.598Z,7.70
2023-04-26T11:47:43.046Z,7.50
2023-04-26T11:50:10.400Z,8.80
2023-04-26T11:52:37.204Z,7.40
2023-04-26T11:55:06.008Z,6.00
2023-04-26T11:57:33.518Z,8.50
2023-04-26T12:00:11.696Z,6.60
2023-04-26T12:02:38.815Z,6.30
2023-04-26T12:05:08.877Z,6.90
2023-04-26T12:07:37.652Z,6.90
2023-04-26T12:10:20.788Z,10.10
2023-04-26T12:12:51.645Z,10.00
2023-04-26T12:15:19.776Z,8.40
2023-04-26T12:18:10.564Z,7.10
2023-04-26T12:20:41.568Z,6.60
2023-04-26T12:23:09.056Z,13.10
2023-04-26T12:25:40.108Z,8.00
2023-04-26T12:28:13.745Z,9.10
2023-04-26T12:30:41.225Z,9.20
2023-04-26T12:33:16.621Z,7.50
2023-04-26T12:35:44.735Z,12.70
2023-04-26T12:38:12.585Z,9.20
2023-04-26T12:40:39.833Z,8.60
2023-04-26T12:43:06.912Z,9.50
2023-04-26T12:45:42.318Z,9.30
2023-04-26T12:48:09.874Z,8.10
2023-04-26T12:50:36.974Z,11.30
2023-04-26T12:53:03.746Z,8.90
2023-04-26T12:55:32.572Z,9.10
2023-04-26T12:58:00.143Z,8.90
2023-04-26T13:00:27.307Z,11.50
2023-04-26T13:02:54.341Z,7.70
2023-04-26T13:05:24.707Z,7.10
2023-04-26T13:07:51.948Z,7.90
2023-04-26T13:10:19.727Z,8.50
2023-04-26T13:12:46.694Z,9.10
2023-04-26T13:15:14.330Z,8.80
2023-04-26T13:17:43.115Z,11.50
2023-04-26T13:20:10.822Z,9.50
2023-04-26T13:22:39.505Z,11.30
2023-04-26T13:25:07.064Z,8.70
2023-04-26T13:27:33.914Z,9.10
2023-04-26T13:30:00.833Z,9.60
2023-04-26T13:32:29.286Z,11.60
2023-04-26T13:34:56.946Z,9.10
2023-04-26T13:37:24.079Z,10.00
2023-04-26T13:39:51.215Z,10.60
2023-04-26T13:42:18.432Z,10.30
2023-04-26T13:44:45.291Z,12.40
2023-04-26T13:47:12.268Z,9.30
2023-04-26T13:49:41.640Z,11.50
2023-04-26T13:52:08.666Z,9.20
2023-04-26T13:54:36.900Z,10.40
2023-04-26T13:57:04.446Z,10.40
2023-04-26T13:59:31.393Z,10.10
2023-04-26T14:01:59.245Z,10.60
2023-04-26T14:04:26.676Z,12.50
2023-04-26T14:06:53.900Z,13.60
2023-04-26T14:09:20.860Z,14.00
2023-04-26T14:11:57.067Z,11.70
2023-04-26T14:14:33.809Z,13.60
2023-04-26T14:17:00.644Z,12.10
2023-04-26T14:26:53.621Z,12.80
2023-04-26T14:29:20.739Z,15.70
2023-04-26T14:31:47.870Z,12.50
2023-04-26T14:34:14.862Z,15.60
2023-04-26T14:36:41.728Z,15.10
2023-04-26T14:39:08.543Z,13.00
2023-04-26T14:41:35.385Z,11.70
2023-04-26T14:44:02.181Z,10.40
2023-04-26T14:46:29.093Z,12.20
2023-04-26T14:48:56.112Z,14.60
2023-04-26T14:51:22.862Z,14.00
2023-04-26T14:53:49.708Z,15.20
2023-04-26T14:56:16.591Z,14.90
2023-04-26T14:58:43.499Z,12.20
2023-04-26T15:01:10.740Z,11.90
2023-04-26T15:03:38.481Z,12.10
2023-04-26T15:06:05.979Z,14.50
2023-04-26T15:08:32.907Z,13.10
2023-04-26T15:10:59.951Z,12.80
2023-04-26T15:13:26.753Z,13.10
2023-04-26T15:15:53.474Z,11.00
2023-04-26T15:18:20.416Z,11.70
2023-04-26T15:20:47.326Z,13.30
2023-04-26T15:23:14.280Z,14.50
2023-04-26T15:25:41.026Z,12.30
2023-04-26T15:28:07.801Z,17.80
2023-04-26T15:30:35.014Z,11.40
2023-04-26T15:33:01.929Z,11.70
2023-04-26T15:35:29.019Z,11.30
2023-04-26T15:37:56.253Z,12.10
2023-04-26T15:40:24.636Z,11.30
2023-04-26T15:42:52.073Z,11.90
2023-04-26T15:45:19.551Z,9.80
2023-04-26T15:47:47.320Z,10.90
2023-04-26T15:50:14.648Z,14.90
2023-04-26T15:52:41.435Z,12.20
2023-04-26T15:55:08.355Z,9.30
2023-04-26T15:57:35.318Z,13.70
2023-04-26T16:00:02.232Z,10.00
2023-04-26T16:02:31.336Z,15.20
2023-04-26T16:04:58.372Z,11.10
2023-04-26T16:07:25.571Z,10.00
2023-04-26T16:09:52.622Z,13.90
2023-04-26T16:12:19.382Z,13.20
2023-04-26T16:14:46.527Z,11.70
2023-04-26T16:17:13.317Z,14.60
2023-04-26T16:19:40.247Z,11.60
2023-04-26T16:22:07.010Z,11.60
2023-04-26T16:24:33.880Z,10.90
2023-04-26T16:27:00.770Z,11.40
2023-04-26T16:29:27.941Z,14.60
2023-04-26T16:31:55.185Z,10.30
2023-04-26T16:34:22.216Z,13.50
2023-04-26T16:36:49.052Z,19.00
2023-04-26T16:39:16.312Z,14.00
2023-04-26T16:41:43.544Z,13.40
2023-04-26T16:44:10.947Z,12.30
2023-04-26T16:46:37.952Z,13.60
2023-04-26T16:49:09.678Z,12.10
2023-04-26T16:51:38.035Z,11.00
2023-04-26T16:54:05.020Z,15.00
2023-04-26T16:56:32.305Z,12.30
2023-04-26T16:58:59.703Z,11.90
2023-04-26T17:01:26.943Z,12.40
2023-04-26T17:03:54.393Z,11.20
2023-04-26T17:06:21.403Z,12.40
2023-04-26T17:08:48.239Z,12.20
2023-04-26T17:11:16.356Z,14.00
2023-04-26T17:13:43.674Z,11.90
2023-04-26T17:16:10.484Z,13.30
2023-04-26T17:18:37.473Z,14.70
2023-04-26T17:21:05.162Z,16.90
2023-04-26T17:23:33.848Z,12.80
2023-04-26T17:26:01.691Z,15.60
2023-04-26T17:28:28.860Z,14.00
2023-04-26T17:30:55.805Z,17.40
2023-04-26T17:33:23.178Z,12.80
2023-04-26T17:35:50.343Z,14.40
2023-04-26T17:38:17.277Z,15.80
2023-04-26T17:40:44.098Z,13.30
2023-04-26T17:43:11.558Z,12.30
2023-04-26T17:45:38.566Z,14.40
2023-04-26T17:48:10.941Z,12.00
2023-04-26T17:50:37.728Z,12.20
2023-04-26T17:53:06.036Z,14.90
2023-04-26T17:55:33.099Z,11.90
2023-04-26T17:57:59.945Z,15.10
2023-04-26T18:00:27.050Z,12.00
2023-04-26T18:02:54.785Z,15.80
2023-04-26T18:05:21.978Z,14.70
2023-04-26T18:07:48.774Z,15.60
2023-04-26T18:10:15.574Z,13.00
2023-04-26T18:12:42.305Z,15.40
2023-04-26T18:15:09.253Z,14.30
2023-04-26T18:17:36.369Z,15.30
2023-04-26T18:20:03.374Z,12.50
2023-04-26T18:22:30.220Z,15.30
2023-04-26T18:24:57.026Z,13.00
2023-04-26T18:27:23.767Z,15.30
2023-04-26T18:29:50.795Z,13.00
2023-04-26T18:32:17.542Z,16.40
2023-04-26T18:34:44.312Z,12.20
2023-04-26T18:37:11.127Z,13.20
2023-04-26T18:39:38.085Z,26.70
2023-04-26T18:42:05.055Z,13.80
2023-04-26T18:44:32.166Z,14.30
2023-04-26T18:46:59.411Z,14.40
2023-04-26T18:49:27.460Z,14.90
2023-04-26T18:51:54.479Z,14.90
2023-04-26T18:54:21.365Z,17.50
2023-04-26T18:56:48.104Z,15.30
2023-04-26T18:59:14.847Z,17.20
2023-04-26T19:01:41.676Z,14.30
2023-04-26T19:04:09.347Z,14.40
2023-04-26T19:06:36.348Z,14.70
2023-04-26T19:09:06.594Z,13.40
2023-04-26T19:11:33.337Z,15.40
2023-04-26T19:14:00.151Z,14.60
2023-04-26T19:16:27.081Z,17.00
2023-04-26T19:18:53.991Z,17.00
2023-04-26T19:21:20.770Z,16.30
2023-04-26T19:23:47.616Z,14.60
2023-04-26T19:26:14.391Z,15.60
2023-04-26T19:28:41.755Z,16.60
2023-04-26T19:31:08.562Z,21.70
2023-04-26T19:33:35.337Z,16.90
2023-04-26T19:36:02.076Z,18.90
2023-04-26T19:38:28.821Z,19.10
2023-04-26T19:40:55.885Z,19.60
2023-04-26T19:43:22.760Z,18.30
2023-04-26T19:45:49.675Z,17.50
2023-04-26T19:48:16.556Z,16.90
2023-04-26T19:50:46.717Z,18.50
2023-04-26T19:53:14.529Z,19.70
2023-04-26T19:55:42.403Z,17.80
2023-04-26T19:58:10.856Z,15.40
2023-04-26T20:00:39.913Z,16.40
2023-04-26T20:03:07.120Z,19.40
2023-04-26T20:05:34.292Z,14.70
2023-04-26T20:08:01.630Z,14.50
2023-04-26T20:10:33.465Z,16.40
2023-04-26T20:13:00.853Z,17.10
2023-04-26T20:15:27.939Z,15.00
2023-04-26T20:17:55.085Z,17.70
2023-04-26T20:20:22.188Z,14.90
2023-04-26T20:22:48.916Z,17.90
2023-04-26T20:25:15.902Z,17.40
2023-04-26T20:27:42.799Z,16.70
2023-04-26T20:30:10.913Z,16.10
2023-04-26T20:32:37.805Z,17.10
2023-04-26T20:35:05.292Z,18.10
2023-04-26T20:37:32.014Z,14.50
2023-04-26T20:39:58.774Z,15.80
2023-04-26T20:42:25.720Z,18.50
2023-04-26T20:44:52.496Z,15.30
2023-04-26T20:47:19.399Z,17.20
2023-04-26T20:49:46.176Z,14.40
2023-04-26T20:52:13.121Z,15.30
2023-04-26T20:54:39.948Z,16.00
2023-04-26T20:57:06.685Z,17.40
2023-04-26T20:59:33.529Z,17.50
2023-04-26T21:02:01.443Z,8.90
2023-04-26T21:04:28.711Z,6.60
2023-04-26T21:06:55.915Z,5.20
2023-04-26T21:09:22.820Z,4.10
2023-04-26T21:11:49.761Z,5.80
2023-04-26T21:14:16.823Z,4.20
2023-04-26T21:16:44.311Z,5.20
2023-04-26T21:26:25.720Z,5.20
2023-04-26T21:33:09.987Z,5.20
2023-04-26T21:43:05.214Z,5.20
2023-04-26T21:53:21.321Z,5.20
2023-04-26T22:03:20.058Z,5.20
2023-04-26T22:10:52.704Z,5.20
2023-04-26T22:17:32.575Z,5.20
2023-04-26T22:27:21.760Z,5.20
2023-04-26T22:37:37.459Z,5.20
2023-04-26T22:47:34.940Z,5.20
2023-04-26T22:55:02.388Z,5.20
2023-04-26T23:01:42.175Z,5.20
2023-04-26T23:11:31.285Z,5.20
2023-04-26T23:21:46.959Z,5.20
2023-04-26T23:31:44.603Z,5.20
2023-04-26T23:39:18.276Z,5.20
2023-04-26T23:45:57.884Z,5.20
2023-04-26T23:55:46.654Z,5.20
